createdAt,value
2018-07-06T00:00:56.399Z,17.20
2018-07-06T00:03:36.836Z,17.20
2018-07-06T00:06:17.347Z,17.20
2018-07-06T00:08:57.796Z,17.10
2018-07-06T00:11:38.144Z,17.10
2018-07-06T00:14:18.692Z,17.00
2018-07-06T00:16:59.056Z,17.00
2018-07-06T00:19:39.510Z,16.90
2018-07-06T00:22:19.788Z,16.90
2018-07-06T00:25:00.254Z,16.80
2018-07-06T00:27:40.669Z,16.80
2018-07-06T00:30:21.071Z,16.70
2018-07-06T00:33:01.431Z,16.70
2018-07-06T00:35:41.903Z,16.60
2018-07-06T00:38:22.239Z,16.50
2018-07-06T00:43:36.956Z,16.40
2018-07-06T00:46:17.493Z,16.40
2018-07-06T00:48:58.090Z,16.30
2018-07-06T00:51:38.420Z,16.20
2018-07-06T00:54:19.105Z,16.10
2018-07-06T00:56:59.502Z,16.10
2018-07-06T00:59:39.883Z,16.10
2018-07-06T01:02:20.813Z,16.10
2018-07-06T01:07:35.631Z,16.10
2018-07-06T01:10:16.643Z,16.00
2018-07-06T01:13:01.294Z,16.10
2018-07-06T01:15:41.708Z,16.00
2018-07-06T01:18:21.968Z,16.00
2018-07-06T01:21:02.742Z,16.00
2018-07-06T01:23:43.217Z,16.00
2018-07-06T01:26:23.362Z,16.00
2018-07-06T01:29:03.905Z,15.90
2018-07-06T01:31:44.231Z,15.80
2018-07-06T01:34:24.748Z,15.90
2018-07-06T01:37:05.286Z,15.80
2018-07-06T01:39:45.701Z,15.80
2018-07-06T01:42:26.092Z,15.80
2018-07-06T01:45:06.642Z,15.80
2018-07-06T01:47:47.037Z,15.80
2018-07-06T01:50:27.395Z,15.70
2018-07-06T01:53:07.741Z,15.70
2018-07-06T01:55:48.278Z,15.60
2018-07-06T01:58:28.613Z,15.70
2018-07-06T02:01:09.109Z,15.60
2018-07-06T02:03:49.459Z,15.60
2018-07-06T02:06:29.742Z,15.60
2018-07-06T02:09:10.089Z,15.60
2018-07-06T02:11:50.561Z,15.60
2018-07-06T02:14:30.935Z,15.50
2018-07-06T02:17:11.443Z,15.50
2018-07-06T02:19:51.761Z,15.50
2018-07-06T02:22:32.097Z,15.50
2018-07-06T02:25:12.358Z,15.40
2018-07-06T02:30:26.956Z,15.30
2018-07-06T02:33:07.290Z,15.30
2018-07-06T02:35:47.757Z,15.30
2018-07-06T02:38:28.230Z,15.20
2018-07-06T02:41:08.500Z,15.30
2018-07-06T02:43:48.901Z,15.20
2018-07-06T02:46:29.461Z,15.20
2018-07-06T02:49:09.602Z,15.20
2018-07-06T02:51:49.998Z,15.10
2018-07-06T02:54:30.378Z,15.10
2018-07-06T02:57:10.726Z,15.10
2018-07-06T02:59:51.108Z,15.10
2018-07-06T03:02:31.563Z,15.10
2018-07-06T03:05:11.985Z,15.10
2018-07-06T03:07:52.353Z,15.10
2018-07-06T03:10:32.926Z,15.20
2018-07-06T03:13:13.335Z,15.20
2018-07-06T03:15:53.707Z,15.20
2018-07-06T03:18:33.989Z,15.10
2018-07-06T03:21:14.616Z,15.10
2018-07-06T03:23:55.025Z,15.10
2018-07-06T03:26:35.503Z,15.10
2018-07-06T03:29:16.141Z,15.10
2018-07-06T03:31:56.587Z,15.20
2018-07-06T03:34:37.085Z,15.20
2018-07-06T03:37:17.421Z,15.30
2018-07-06T03:39:57.850Z,15.40
2018-07-06T03:42:38.020Z,15.50
2018-07-06T03:45:18.445Z,15.50
2018-07-06T03:47:58.847Z,15.60
2018-07-06T03:50:39.268Z,15.60
2018-07-06T03:53:19.804Z,15.60
2018-07-06T03:56:00.386Z,15.70
2018-07-06T03:58:40.733Z,15.70
2018-07-06T04:03:55.781Z,15.80
2018-07-06T04:06:36.214Z,15.80
2018-07-06T04:09:16.981Z,15.90
2018-07-06T04:14:31.805Z,16.00
2018-07-06T04:17:12.228Z,16.00
2018-07-06T04:19:52.583Z,16.00
2018-07-06T04:22:33.010Z,16.10
2018-07-06T04:25:13.199Z,16.10
2018-07-06T04:27:53.665Z,16.20
2018-07-06T04:30:34.185Z,16.30
2018-07-06T04:33:14.721Z,16.30
2018-07-06T04:35:55.040Z,16.40
2018-07-06T04:38:35.389Z,16.40
2018-07-06T04:41:15.973Z,16.50
2018-07-06T04:43:56.341Z,16.50
2018-07-06T04:46:36.770Z,16.50
2018-07-06T04:49:17.156Z,16.60
2018-07-06T04:51:57.554Z,16.60
2018-07-06T04:54:37.956Z,16.70
2018-07-06T04:57:18.264Z,16.80
2018-07-06T04:59:58.421Z,16.80
2018-07-06T05:02:38.725Z,16.90
2018-07-06T05:07:54.721Z,17.00
2018-07-06T05:10:35.017Z,17.10
2018-07-06T05:13:15.540Z,17.10
2018-07-06T05:15:56.031Z,17.10
2018-07-06T05:18:36.302Z,17.20
2018-07-06T05:21:16.887Z,17.20
2018-07-06T05:23:57.465Z,17.20
2018-07-06T05:26:38.066Z,17.20
2018-07-06T05:29:18.577Z,17.30
2018-07-06T05:31:58.863Z,17.30
2018-07-06T05:34:39.496Z,17.30
2018-07-06T05:37:19.877Z,17.40
2018-07-06T05:40:00.293Z,17.40
2018-07-06T05:42:40.529Z,17.60
2018-07-06T05:45:20.893Z,17.70
2018-07-06T05:48:01.227Z,17.80
2018-07-06T05:50:41.813Z,18.00
2018-07-06T05:53:22.329Z,18.20
2018-07-06T05:58:36.988Z,18.40
2018-07-06T06:01:17.281Z,18.50
2018-07-06T06:03:57.797Z,18.50
2018-07-06T06:06:38.209Z,18.70
2018-07-06T06:09:06.147Z,18.70
2018-07-06T06:11:35.236Z,18.80
2018-07-06T06:14:04.339Z,19.00
2018-07-06T06:16:33.393Z,19.00
2018-07-06T06:19:02.430Z,19.20
2018-07-06T06:21:31.482Z,19.30
2018-07-06T06:24:00.475Z,19.40
2018-07-06T06:26:31.383Z,19.50
2018-07-06T06:29:00.510Z,19.60
2018-07-06T06:31:29.833Z,19.70
2018-07-06T06:34:00.096Z,19.90
2018-07-06T06:36:29.464Z,20.00
2018-07-06T06:38:58.422Z,20.20
2018-07-06T06:41:27.427Z,20.30
2018-07-06T06:43:56.406Z,20.30
2018-07-06T06:46:25.397Z,20.40
2018-07-06T06:48:54.458Z,20.50
2018-07-06T06:51:23.473Z,20.50
2018-07-06T06:53:52.417Z,20.50
2018-07-06T06:56:21.462Z,20.50
2018-07-06T06:58:50.542Z,20.50
2018-07-06T07:01:19.517Z,20.40
2018-07-06T07:03:48.590Z,20.40
2018-07-06T07:06:17.910Z,20.40
2018-07-06T07:08:46.985Z,20.30
2018-07-06T07:11:15.977Z,20.20
2018-07-06T07:13:44.976Z,20.10
2018-07-06T07:16:14.363Z,20.00
2018-07-06T07:18:43.369Z,20.00
2018-07-06T07:21:12.335Z,20.00
2018-07-06T07:23:41.349Z,20.00
2018-07-06T07:26:10.360Z,20.00
2018-07-06T07:28:39.346Z,20.10
2018-07-06T07:31:08.357Z,20.10
2018-07-06T07:33:37.520Z,20.20
2018-07-06T07:36:06.579Z,20.40
2018-07-06T07:38:35.504Z,20.50
2018-07-06T07:41:04.454Z,20.70
2018-07-06T07:43:33.459Z,20.90
2018-07-06T07:46:02.393Z,21.00
2018-07-06T07:48:31.344Z,21.10
2018-07-06T07:51:11.494Z,21.20
2018-07-06T07:53:51.921Z,21.30
2018-07-06T07:56:20.888Z,21.40
2018-07-06T07:58:49.924Z,21.40
2018-07-06T08:01:19.028Z,21.50
2018-07-06T08:03:47.839Z,21.50
2018-07-06T08:06:16.789Z,21.40
2018-07-06T08:08:46.209Z,21.50
2018-07-06T08:11:15.164Z,21.60
2018-07-06T08:13:44.112Z,21.80
2018-07-06T08:16:13.070Z,21.90
2018-07-06T08:21:10.558Z,22.20
2018-07-06T08:23:39.494Z,22.50
2018-07-06T08:26:08.518Z,22.90
2018-07-06T08:28:37.662Z,23.30
2018-07-06T08:31:06.666Z,23.60
2018-07-06T08:33:41.990Z,24.10
2018-07-06T08:37:19.784Z,24.70
2018-07-06T08:39:49.199Z,25.30
2018-07-06T08:42:18.064Z,25.60
2018-07-06T08:44:47.196Z,25.60
2018-07-06T08:47:16.207Z,25.40
2018-07-06T08:49:45.214Z,25.40
2018-07-06T08:52:14.995Z,25.30
2018-07-06T08:54:43.968Z,25.40
2018-07-06T08:57:12.902Z,25.50
2018-07-06T08:59:42.018Z,25.50
2018-07-06T09:02:11.383Z,25.90
2018-07-06T09:04:40.380Z,26.20
2018-07-06T09:07:09.338Z,26.40
2018-07-06T09:09:38.522Z,26.60
2018-07-06T09:12:08.045Z,26.70
2018-07-06T09:14:37.175Z,26.80
2018-07-06T09:17:06.125Z,26.60
2018-07-06T09:19:35.325Z,26.50
2018-07-06T09:22:05.428Z,26.60
2018-07-06T09:24:34.572Z,26.60
2018-07-06T09:27:03.562Z,26.70
2018-07-06T09:29:32.449Z,26.80
2018-07-06T09:32:01.439Z,27.00
2018-07-06T09:34:30.441Z,27.10
2018-07-06T09:36:59.434Z,27.10
2018-07-06T09:39:28.361Z,27.20
2018-07-06T09:41:57.626Z,27.40
2018-07-06T09:44:26.882Z,27.80
2018-07-06T09:46:55.851Z,28.10
2018-07-06T09:49:24.957Z,28.30
2018-07-06T09:51:54.159Z,28.10
2018-07-06T09:54:23.144Z,28.00
2018-07-06T09:56:52.135Z,28.10
2018-07-06T09:59:21.411Z,28.40
2018-07-06T10:01:50.444Z,28.50
2018-07-06T10:04:19.521Z,28.60
2018-07-06T10:06:48.593Z,28.80
2018-07-06T10:09:17.741Z,28.50
2018-07-06T10:11:46.666Z,28.50
2018-07-06T10:14:15.862Z,28.60
2018-07-06T10:16:45.297Z,28.50
2018-07-06T10:19:14.414Z,28.40
2018-07-06T10:21:43.425Z,28.50
2018-07-06T10:24:12.679Z,28.50
2018-07-06T10:26:41.659Z,28.60
2018-07-06T10:29:23.609Z,28.70
2018-07-06T10:32:29.766Z,28.90
2018-07-06T10:34:59.489Z,29.30
2018-07-06T10:37:29.105Z,29.60
2018-07-06T10:42:26.819Z,29.80
2018-07-06T10:44:56.025Z,29.50
2018-07-06T10:47:24.984Z,29.60
2018-07-06T10:49:54.124Z,29.80
2018-07-06T10:52:23.130Z,30.10
2018-07-06T10:54:52.129Z,30.00
2018-07-06T10:57:21.218Z,29.80
2018-07-06T10:59:50.105Z,29.90
2018-07-06T11:02:19.203Z,29.90
2018-07-06T11:04:48.117Z,29.90
2018-07-06T11:07:17.172Z,29.90
2018-07-06T11:09:46.148Z,29.70
2018-07-06T11:12:15.144Z,29.60
2018-07-06T11:14:44.168Z,29.70
2018-07-06T11:17:13.111Z,30.00
2018-07-06T11:19:42.238Z,30.00
2018-07-06T11:22:11.355Z,29.60
2018-07-06T11:24:40.420Z,29.40
2018-07-06T11:27:09.416Z,29.50
2018-07-06T11:29:38.408Z,29.70
2018-07-06T11:32:07.438Z,30.00
2018-07-06T11:39:33.593Z,30.80
2018-07-06T11:42:02.554Z,30.80
2018-07-06T11:44:31.466Z,30.80
2018-07-06T11:47:00.478Z,30.60
2018-07-06T11:49:29.442Z,30.40
2018-07-06T11:51:58.384Z,29.80
2018-07-06T11:54:27.379Z,29.60
2018-07-06T11:56:56.369Z,29.70
2018-07-06T11:59:25.379Z,29.70
2018-07-06T12:01:54.523Z,29.70
2018-07-06T12:04:23.941Z,29.90
2018-07-06T12:06:53.465Z,30.30
2018-07-06T12:09:22.458Z,30.60
2018-07-06T12:11:51.505Z,30.70
2018-07-06T12:14:20.815Z,30.00
2018-07-06T12:16:50.149Z,30.00
2018-07-06T12:19:19.186Z,30.20
2018-07-06T12:21:48.327Z,30.10
2018-07-06T12:24:17.377Z,29.80
2018-07-06T12:26:46.577Z,29.80
2018-07-06T12:29:16.130Z,29.80
2018-07-06T12:31:45.258Z,29.80
2018-07-06T12:34:14.311Z,29.80
2018-07-06T12:36:43.964Z,29.60
2018-07-06T12:39:13.696Z,29.60
2018-07-06T12:41:43.157Z,29.70
2018-07-06T12:44:12.313Z,30.30
2018-07-06T12:46:41.464Z,30.80
2018-07-06T12:49:10.522Z,31.20
2018-07-06T12:51:40.646Z,31.30
2018-07-06T12:54:09.808Z,31.40
2018-07-06T12:56:39.491Z,31.30
2018-07-06T12:59:08.677Z,31.00
2018-07-06T13:01:37.672Z,30.80
2018-07-06T13:04:06.812Z,30.90
2018-07-06T13:06:36.257Z,30.90
2018-07-06T13:09:06.000Z,30.90
2018-07-06T13:11:35.003Z,31.00
2018-07-06T13:14:03.950Z,30.90
2018-07-06T13:16:33.709Z,30.70
2018-07-06T13:19:02.672Z,30.50
2018-07-06T13:21:31.741Z,30.60
2018-07-06T13:24:00.997Z,30.50
2018-07-06T13:26:29.974Z,30.50
2018-07-06T13:28:58.980Z,30.50
2018-07-06T13:31:28.250Z,30.70
2018-07-06T13:33:57.333Z,30.60
2018-07-06T13:38:54.937Z,30.30
2018-07-06T13:41:25.129Z,30.00
2018-07-06T13:43:54.326Z,30.00
2018-07-06T13:46:23.384Z,30.20
2018-07-06T13:48:52.592Z,30.60
2018-07-06T13:51:21.687Z,30.80
2018-07-06T13:53:51.037Z,30.90
2018-07-06T13:56:20.355Z,30.90
2018-07-06T13:58:49.540Z,30.80
2018-07-06T14:01:18.544Z,30.70
2018-07-06T14:03:47.501Z,30.70
2018-07-06T14:06:17.097Z,30.60
2018-07-06T14:08:46.323Z,30.40
2018-07-06T14:11:16.018Z,30.30
2018-07-06T14:13:45.140Z,30.30
2018-07-06T14:16:14.107Z,30.20
2018-07-06T14:18:43.371Z,30.10
2018-07-06T14:21:13.140Z,30.00
2018-07-06T14:23:42.215Z,29.80
2018-07-06T14:26:11.301Z,29.40
2018-07-06T14:28:40.275Z,29.30
2018-07-06T14:31:09.673Z,29.30
2018-07-06T14:33:38.820Z,29.20
2018-07-06T14:36:08.264Z,29.50
2018-07-06T14:38:37.326Z,29.70
2018-07-06T14:41:06.340Z,29.70
2018-07-06T14:43:35.541Z,29.70
2018-07-06T14:46:04.674Z,29.70
2018-07-06T14:48:33.969Z,29.50
2018-07-06T14:51:03.084Z,29.30
2018-07-06T14:53:32.156Z,29.20
2018-07-06T14:56:01.509Z,29.00
2018-07-06T14:58:30.670Z,29.00
2018-07-06T15:00:59.775Z,29.00
2018-07-06T15:03:28.781Z,29.10
2018-07-06T15:05:58.264Z,29.10
2018-07-06T15:08:27.897Z,28.90
2018-07-06T15:10:57.186Z,28.90
2018-07-06T15:15:54.958Z,28.80
2018-07-06T15:18:24.468Z,29.00
2018-07-06T15:20:53.666Z,29.20
2018-07-06T15:23:22.946Z,29.00
2018-07-06T15:25:51.920Z,28.90
2018-07-06T15:28:20.878Z,29.00
2018-07-06T15:30:50.062Z,28.80
2018-07-06T15:33:19.213Z,28.90
2018-07-06T15:35:48.515Z,29.00
2018-07-06T15:38:17.457Z,28.90
2018-07-06T15:40:46.430Z,28.70
2018-07-06T15:43:15.594Z,28.60
2018-07-06T15:45:44.743Z,28.40
2018-07-06T15:48:13.753Z,28.20
2018-07-06T15:50:42.733Z,28.10
2018-07-06T15:53:12.012Z,28.20
2018-07-06T15:55:41.177Z,28.20
2018-07-06T15:58:10.311Z,28.10
2018-07-06T16:00:39.325Z,28.10
2018-07-06T16:03:08.541Z,28.20
2018-07-06T16:05:37.749Z,28.30
2018-07-06T16:08:06.893Z,27.90
2018-07-06T16:10:35.805Z,28.00
2018-07-06T16:13:04.775Z,28.10
2018-07-06T16:15:33.900Z,28.20
2018-07-06T16:18:03.263Z,28.10
2018-07-06T16:20:32.347Z,28.00
2018-07-06T16:23:01.368Z,27.80
2018-07-06T16:25:30.429Z,27.70
2018-07-06T16:27:59.780Z,27.60
2018-07-06T16:30:28.928Z,27.40
2018-07-06T16:32:58.376Z,27.30
2018-07-06T16:35:28.047Z,27.20
2018-07-06T16:40:27.190Z,26.90
2018-07-06T16:43:00.135Z,26.80
2018-07-06T16:45:29.445Z,26.80
2018-07-06T16:47:58.469Z,26.70
2018-07-06T16:50:27.461Z,26.60
2018-07-06T16:52:56.457Z,26.30
2018-07-06T16:55:25.424Z,26.40
2018-07-06T16:57:56.240Z,26.30
2018-07-06T17:00:26.166Z,26.20
2018-07-06T17:02:56.015Z,26.30
2018-07-06T17:05:26.805Z,26.30
2018-07-06T17:07:56.782Z,26.20
2018-07-06T17:10:26.653Z,26.20
2018-07-06T17:12:55.626Z,26.10
2018-07-06T17:15:24.562Z,26.10
2018-07-06T17:17:53.519Z,26.00
2018-07-06T17:20:22.469Z,26.00
2018-07-06T17:22:51.563Z,26.00
2018-07-06T17:25:20.617Z,26.00
2018-07-06T17:27:49.656Z,26.10
2018-07-06T17:30:18.612Z,26.10
2018-07-06T17:32:47.701Z,26.20
2018-07-06T17:35:16.700Z,26.20
2018-07-06T17:37:45.736Z,26.10
2018-07-06T17:40:14.996Z,26.10
2018-07-06T17:42:44.096Z,26.20
2018-07-06T17:45:13.041Z,26.40
2018-07-06T17:47:42.066Z,26.40
2018-07-06T17:50:11.070Z,26.50
2018-07-06T17:52:40.144Z,26.50
2018-07-06T17:55:09.173Z,26.50
2018-07-06T17:57:38.228Z,26.50
2018-07-06T18:00:07.361Z,26.40
2018-07-06T18:07:33.649Z,26.30
2018-07-06T18:10:02.846Z,26.20
2018-07-06T18:12:31.847Z,26.20
2018-07-06T18:15:00.809Z,26.10
2018-07-06T18:17:31.024Z,26.10
2018-07-06T18:20:00.197Z,26.10
2018-07-06T18:22:29.502Z,26.10
2018-07-06T18:24:58.587Z,26.00
2018-07-06T18:27:27.556Z,26.00
2018-07-06T18:29:56.722Z,26.20
2018-07-06T18:32:25.718Z,26.20
2018-07-06T18:34:54.737Z,26.40
2018-07-06T18:37:23.837Z,26.40
2018-07-06T18:39:52.784Z,26.30
2018-07-06T18:42:21.980Z,26.10
2018-07-06T18:44:50.914Z,26.10
2018-07-06T18:47:19.917Z,25.80
2018-07-06T18:49:49.062Z,25.60
2018-07-06T18:52:18.059Z,25.40
2018-07-06T18:54:47.097Z,25.20
2018-07-06T18:57:16.064Z,25.10
2018-07-06T18:59:45.042Z,25.00
2018-07-06T19:02:14.038Z,24.80
2018-07-06T19:04:43.046Z,24.70
2018-07-06T19:07:12.127Z,24.60
2018-07-06T19:09:41.141Z,24.50
2018-07-06T19:12:10.313Z,24.40
2018-07-06T19:14:39.544Z,24.40
2018-07-06T19:19:37.193Z,24.10
2018-07-06T19:22:06.221Z,24.10
2018-07-06T19:24:35.294Z,24.10
2018-07-06T19:27:04.281Z,24.00
2018-07-06T19:29:33.181Z,23.90
2018-07-06T19:34:30.828Z,23.70
2018-07-06T19:36:59.883Z,23.60
2018-07-06T19:41:57.510Z,23.30
2018-07-06T19:44:27.658Z,23.20
2018-07-06T19:46:56.852Z,23.10
2018-07-06T19:54:23.145Z,22.90
2018-07-06T19:56:52.385Z,22.80
2018-07-06T19:59:21.484Z,22.70
2018-07-06T20:01:50.617Z,22.60
2018-07-06T20:04:19.596Z,22.50
2018-07-06T20:06:48.846Z,22.40
2018-07-06T20:09:17.878Z,22.20
2018-07-06T20:11:46.933Z,22.10
2018-07-06T20:14:15.996Z,22.00
2018-07-06T20:16:44.948Z,21.80
2018-07-06T20:21:43.032Z,21.60
2018-07-06T20:24:12.290Z,21.50
2018-07-06T20:26:42.532Z,21.50
2018-07-06T20:29:11.895Z,21.40
2018-07-06T20:31:41.124Z,21.30
2018-07-06T20:34:10.436Z,21.30
2018-07-06T20:36:39.951Z,21.20
2018-07-06T20:39:08.957Z,21.10
2018-07-06T20:41:37.958Z,21.00
2018-07-06T20:44:06.905Z,20.90
2018-07-06T20:46:35.883Z,20.90
2018-07-06T20:49:05.501Z,20.90
2018-07-06T20:51:34.416Z,20.70
2018-07-06T20:54:03.476Z,20.60
2018-07-06T20:56:32.654Z,20.50
2018-07-06T20:59:01.726Z,20.50
2018-07-06T21:01:30.655Z,20.40
2018-07-06T21:03:59.586Z,20.30
2018-07-06T21:06:28.605Z,20.30
2018-07-06T21:08:57.712Z,20.20
2018-07-06T21:11:26.726Z,20.20
2018-07-06T21:13:55.664Z,20.10
2018-07-06T21:16:25.841Z,20.00
2018-07-06T21:18:54.782Z,20.00
2018-07-06T21:21:23.727Z,19.90
2018-07-06T21:23:52.871Z,19.80
2018-07-06T21:26:21.973Z,19.80
2018-07-06T21:28:50.918Z,19.70
2018-07-06T21:31:19.908Z,19.60
2018-07-06T21:33:49.060Z,19.60
2018-07-06T21:36:18.060Z,19.50
2018-07-06T21:38:47.011Z,19.40
2018-07-06T21:41:15.925Z,19.40
2018-07-06T21:43:44.891Z,19.30
2018-07-06T21:46:13.943Z,19.30
2018-07-06T21:48:43.042Z,19.20
2018-07-06T21:51:12.017Z,19.20
2018-07-06T21:53:41.033Z,19.10
2018-07-06T21:56:10.107Z,19.10
2018-07-06T21:58:39.114Z,19.00
2018-07-06T22:01:08.527Z,18.90
2018-07-06T22:06:06.118Z,18.80
2018-07-06T22:08:36.000Z,18.70
2018-07-06T22:11:04.959Z,18.70
2018-07-06T22:13:33.913Z,18.60
2018-07-06T22:16:03.087Z,18.60
2018-07-06T22:18:32.127Z,18.50
2018-07-06T22:21:01.138Z,18.50
2018-07-06T22:23:30.129Z,18.40
2018-07-06T22:25:59.678Z,18.40
2018-07-06T22:28:28.592Z,18.30
2018-07-06T22:30:57.721Z,18.30
2018-07-06T22:33:26.701Z,18.20
2018-07-06T22:35:55.716Z,18.10
2018-07-06T22:38:24.709Z,18.10
2018-07-06T22:40:53.661Z,18.10
2018-07-06T22:43:22.596Z,18.00
2018-07-06T22:45:51.541Z,18.00
2018-07-06T22:48:20.663Z,17.90
2018-07-06T22:50:49.602Z,17.80
2018-07-06T22:53:18.626Z,17.80
2018-07-06T22:55:47.624Z,17.70
2018-07-06T22:58:16.720Z,17.70
2018-07-06T23:00:45.674Z,17.60
2018-07-06T23:03:14.640Z,17.50
2018-07-06T23:08:12.271Z,17.50
2018-07-06T23:10:41.249Z,17.40
2018-07-06T23:13:10.180Z,17.40
2018-07-06T23:15:39.122Z,17.40
2018-07-06T23:18:08.156Z,17.40
2018-07-06T23:20:37.063Z,17.30
2018-07-06T23:23:07.342Z,17.20
2018-07-06T23:25:44.870Z,17.20
2018-07-06T23:28:13.916Z,17.20
2018-07-06T23:30:42.916Z,17.10
2018-07-06T23:33:12.221Z,17.10
2018-07-06T23:35:41.235Z,17.00
2018-07-06T23:38:10.156Z,17.00
2018-07-06T23:40:39.105Z,16.90
2018-07-06T23:43:08.137Z,16.90
2018-07-06T23:45:37.302Z,16.90
2018-07-06T23:48:06.245Z,16.90
2018-07-06T23:50:35.174Z,16.90
2018-07-06T23:53:04.131Z,16.80
2018-07-06T23:55:33.101Z,16.80
2018-07-06T23:58:02.129Z,16.80
